sensor_id;sensor_type;location;lat;lon;timestamp;P1;durP1;ratioP1;P2;durP2;ratioP2
71162;SDS011;58858;50.948;6.566;2022-08-21T00:01:33;6.82;;;4.65;;
71162;SDS011;58858;50.948;6.566;2022-08-21T00:11:35;8.70;;;4.85;;
71162;SDS011;58858;50.948;6.566;2022-08-21T00:21:38;10.48;;;5.35;;
71162;SDS011;58858;50.948;6.566;2022-08-21T00:31:39;8.98;;;4.88;;
71162;SDS011;58858;50.948;6.566;2022-08-21T00:41:41;14.65;;;5.03;;
71162;SDS011;58858;50.948;6.566;2022-08-21T00:51:45;12.10;;;7.03;;
71162;SDS011;58858;50.948;6.566;2022-08-21T01:01:50;9.10;;;5.57;;
71162;SDS011;58858;50.948;6.566;2022-08-21T01:11:52;10.95;;;7.30;;
71162;SDS011;58858;50.948;6.566;2022-08-21T01:21:53;11.55;;;6.95;;
71162;SDS011;58858;50.948;6.566;2022-08-21T01:31:55;11.20;;;6.18;;
71162;SDS011;58858;50.948;6.566;2022-08-21T01:41:57;9.90;;;6.05;;
71162;SDS011;58858;50.948;6.566;2022-08-21T01:51:59;11.43;;;6.63;;
71162;SDS011;58858;50.948;6.566;2022-08-21T02:02:00;10.18;;;5.78;;
71162;SDS011;58858;50.948;6.566;2022-08-21T02:12:01;14.80;;;6.85;;
71162;SDS011;58858;50.948;6.566;2022-08-21T02:22:02;13.25;;;7.25;;
71162;SDS011;58858;50.948;6.566;2022-08-21T02:32:04;12.30;;;6.70;;
71162;SDS011;58858;50.948;6.566;2022-08-21T02:42:05;9.15;;;6.05;;
71162;SDS011;58858;50.948;6.566;2022-08-21T02:52:06;11.13;;;5.38;;
71162;SDS011;58858;50.948;6.566;2022-08-21T03:02:07;11.73;;;4.88;;
71162;SDS011;58858;50.948;6.566;2022-08-21T03:12:08;10.05;;;5.57;;
71162;SDS011;58858;50.948;6.566;2022-08-21T03:22:09;9.43;;;5.35;;
71162;SDS011;58858;50.948;6.566;2022-08-21T03:32:14;13.27;;;7.25;;
71162;SDS011;58858;50.948;6.566;2022-08-21T03:42:14;18.17;;;8.30;;
71162;SDS011;58858;50.948;6.566;2022-08-21T03:52:16;9.73;;;5.93;;
71162;SDS011;58858;50.948;6.566;2022-08-21T04:02:17;13.25;;;6.57;;
71162;SDS011;58858;50.948;6.566;2022-08-21T04:12:21;9.80;;;6.10;;
71162;SDS011;58858;50.948;6.566;2022-08-21T04:22:22;10.77;;;6.38;;
71162;SDS011;58858;50.948;6.566;2022-08-21T04:32:24;11.50;;;7.00;;
71162;SDS011;58858;50.948;6.566;2022-08-21T04:42:26;14.68;;;7.55;;
71162;SDS011;58858;50.948;6.566;2022-08-21T04:52:28;10.90;;;5.78;;
71162;SDS011;58858;50.948;6.566;2022-08-21T05:02:29;11.13;;;5.93;;
71162;SDS011;58858;50.948;6.566;2022-08-21T05:12:33;10.05;;;5.60;;
71162;SDS011;58858;50.948;6.566;2022-08-21T05:22:35;11.57;;;6.80;;
71162;SDS011;58858;50.948;6.566;2022-08-21T05:32:36;13.38;;;5.30;;
71162;SDS011;58858;50.948;6.566;2022-08-21T05:42:37;9.52;;;6.18;;
71162;SDS011;58858;50.948;6.566;2022-08-21T05:52:38;8.32;;;4.38;;
71162;SDS011;58858;50.948;6.566;2022-08-21T06:02:40;9.32;;;5.18;;
71162;SDS011;58858;50.948;6.566;2022-08-21T06:12:41;11.77;;;6.20;;
71162;SDS011;58858;50.948;6.566;2022-08-21T06:22:42;10.30;;;5.13;;
71162;SDS011;58858;50.948;6.566;2022-08-21T06:32:43;10.07;;;3.80;;
71162;SDS011;58858;50.948;6.566;2022-08-21T06:42:44;9.48;;;2.65;;
71162;SDS011;58858;50.948;6.566;2022-08-21T06:52:45;7.78;;;3.10;;
71162;SDS011;58858;50.948;6.566;2022-08-21T07:02:47;13.45;;;3.83;;
71162;SDS011;58858;50.948;6.566;2022-08-21T07:12:49;11.93;;;4.65;;
71162;SDS011;58858;50.948;6.566;2022-08-21T07:22:50;11.02;;;4.28;;
71162;SDS011;58858;50.948;6.566;2022-08-21T07:32:52;6.15;;;2.55;;
71162;SDS011;58858;50.948;6.566;2022-08-21T07:42:54;7.95;;;2.72;;
71162;SDS011;58858;50.948;6.566;2022-08-21T07:52:55;8.88;;;2.92;;
71162;SDS011;58858;50.948;6.566;2022-08-21T08:02:56;5.97;;;2.80;;
71162;SDS011;58858;50.948;6.566;2022-08-21T08:12:58;5.93;;;1.90;;
71162;SDS011;58858;50.948;6.566;2022-08-21T08:22:59;5.55;;;1.77;;
71162;SDS011;58858;50.948;6.566;2022-08-21T08:33:00;4.65;;;1.70;;
71162;SDS011;58858;50.948;6.566;2022-08-21T08:43:01;7.47;;;2.30;;
71162;SDS011;58858;50.948;6.566;2022-08-21T08:53:04;12.25;;;2.63;;
71162;SDS011;58858;50.948;6.566;2022-08-21T09:03:07;20.40;;;2.45;;
71162;SDS011;58858;50.948;6.566;2022-08-21T09:23:22;8.13;;;2.28;;
71162;SDS011;58858;50.948;6.566;2022-08-21T09:33:32;9.98;;;3.15;;
71162;SDS011;58858;50.948;6.566;2022-08-21T09:43:33;8.18;;;2.42;;
71162;SDS011;58858;50.948;6.566;2022-08-21T09:53:37;5.63;;;2.30;;
71162;SDS011;58858;50.948;6.566;2022-08-21T10:03:43;6.28;;;2.40;;
71162;SDS011;58858;50.948;6.566;2022-08-21T10:34:25;7.00;;;2.80;;
71162;SDS011;58858;50.948;6.566;2022-08-21T10:55:16;6.78;;;2.42;;
71162;SDS011;58858;50.948;6.566;2022-08-21T11:15:41;6.65;;;2.10;;
71162;SDS011;58858;50.948;6.566;2022-08-21T11:25:50;5.38;;;2.65;;
71162;SDS011;58858;50.948;6.566;2022-08-21T11:36:07;6.10;;;2.15;;
71162;SDS011;58858;50.948;6.566;2022-08-21T11:56:48;4.97;;;2.42;;
71162;SDS011;58858;50.948;6.566;2022-08-21T12:06:55;11.07;;;2.78;;
71162;SDS011;58858;50.948;6.566;2022-08-21T12:17:03;6.28;;;2.35;;
71162;SDS011;58858;50.948;6.566;2022-08-21T12:27:14;14.90;;;2.60;;
71162;SDS011;58858;50.948;6.566;2022-08-21T12:37:18;5.03;;;2.17;;
71162;SDS011;58858;50.948;6.566;2022-08-21T12:47:33;6.00;;;1.83;;
71162;SDS011;58858;50.948;6.566;2022-08-21T12:57:43;3.95;;;2.00;;
71162;SDS011;58858;50.948;6.566;2022-08-21T13:07:46;7.85;;;1.80;;
71162;SDS011;58858;50.948;6.566;2022-08-21T13:17:48;3.47;;;1.60;;
71162;SDS011;58858;50.948;6.566;2022-08-21T13:28:04;4.70;;;1.83;;
71162;SDS011;58858;50.948;6.566;2022-08-21T13:38:11;5.03;;;1.75;;
71162;SDS011;58858;50.948;6.566;2022-08-21T13:48:12;10.95;;;2.50;;
71162;SDS011;58858;50.948;6.566;2022-08-21T13:58:24;4.40;;;1.47;;
71162;SDS011;58858;50.948;6.566;2022-08-21T14:08:33;3.83;;;1.52;;
71162;SDS011;58858;50.948;6.566;2022-08-21T14:18:51;6.20;;;1.50;;
71162;SDS011;58858;50.948;6.566;2022-08-21T14:28:57;4.97;;;2.38;;
71162;SDS011;58858;50.948;6.566;2022-08-21T14:38:59;5.00;;;1.80;;
71162;SDS011;58858;50.948;6.566;2022-08-21T14:49:01;6.75;;;1.58;;
71162;SDS011;58858;50.948;6.566;2022-08-21T14:59:04;3.97;;;1.38;;
71162;SDS011;58858;50.948;6.566;2022-08-21T15:09:07;6.93;;;1.45;;
71162;SDS011;58858;50.948;6.566;2022-08-21T15:19:08;4.22;;;1.92;;
71162;SDS011;58858;50.948;6.566;2022-08-21T15:29:10;3.85;;;1.30;;
71162;SDS011;58858;50.948;6.566;2022-08-21T15:39:11;2.70;;;0.95;;
71162;SDS011;58858;50.948;6.566;2022-08-21T15:49:12;3.88;;;1.80;;
71162;SDS011;58858;50.948;6.566;2022-08-21T15:59:13;3.13;;;1.30;;
71162;SDS011;58858;50.948;6.566;2022-08-21T16:09:17;5.40;;;1.73;;
71162;SDS011;58858;50.948;6.566;2022-08-21T16:19:18;18.52;;;12.95;;
71162;SDS011;58858;50.948;6.566;2022-08-21T16:29:22;5.00;;;1.47;;
71162;SDS011;58858;50.948;6.566;2022-08-21T16:39:24;6.28;;;1.80;;
71162;SDS011;58858;50.948;6.566;2022-08-21T16:49:25;7.38;;;1.85;;
71162;SDS011;58858;50.948;6.566;2022-08-21T16:59:26;4.53;;;1.85;;
71162;SDS011;58858;50.948;6.566;2022-08-21T17:09:28;6.68;;;2.30;;
71162;SDS011;58858;50.948;6.566;2022-08-21T17:19:29;4.75;;;1.55;;
71162;SDS011;58858;50.948;6.566;2022-08-21T17:29:32;4.53;;;1.90;;
71162;SDS011;58858;50.948;6.566;2022-08-21T17:39:36;7.22;;;1.80;;
71162;SDS011;58858;50.948;6.566;2022-08-21T17:49:38;5.53;;;1.77;;
71162;SDS011;58858;50.948;6.566;2022-08-21T17:59:39;5.28;;;1.73;;
71162;SDS011;58858;50.948;6.566;2022-08-21T18:09:40;5.45;;;1.52;;
71162;SDS011;58858;50.948;6.566;2022-08-21T18:19:41;16.60;;;2.50;;
71162;SDS011;58858;50.948;6.566;2022-08-21T18:29:42;7.60;;;1.92;;
71162;SDS011;58858;50.948;6.566;2022-08-21T18:39:43;7.80;;;1.65;;
71162;SDS011;58858;50.948;6.566;2022-08-21T18:49:46;4.70;;;1.65;;
71162;SDS011;58858;50.948;6.566;2022-08-21T18:59:47;6.38;;;2.38;;
71162;SDS011;58858;50.948;6.566;2022-08-21T19:09:48;5.63;;;1.42;;
71162;SDS011;58858;50.948;6.566;2022-08-21T19:19:49;4.05;;;1.45;;
71162;SDS011;58858;50.948;6.566;2022-08-21T19:29:51;9.02;;;2.17;;
71162;SDS011;58858;50.948;6.566;2022-08-21T19:39:52;4.68;;;1.77;;
71162;SDS011;58858;50.948;6.566;2022-08-21T19:49:55;7.15;;;1.70;;
71162;SDS011;58858;50.948;6.566;2022-08-21T19:59:58;3.08;;;1.65;;
71162;SDS011;58858;50.948;6.566;2022-08-21T20:10:00;2.30;;;1.33;;
71162;SDS011;58858;50.948;6.566;2022-08-21T20:20:02;5.80;;;1.73;;
71162;SDS011;58858;50.948;6.566;2022-08-21T20:30:05;3.78;;;1.60;;
71162;SDS011;58858;50.948;6.566;2022-08-21T20:40:08;7.32;;;1.92;;
71162;SDS011;58858;50.948;6.566;2022-08-21T20:50:10;5.72;;;1.67;;
71162;SDS011;58858;50.948;6.566;2022-08-21T21:00:17;7.97;;;2.00;;
71162;SDS011;58858;50.948;6.566;2022-08-21T21:10:40;6.70;;;1.98;;
71162;SDS011;58858;50.948;6.566;2022-08-21T21:31:13;10.70;;;3.03;;
71162;SDS011;58858;50.948;6.566;2022-08-21T21:41:48;9.27;;;2.55;;
71162;SDS011;58858;50.948;6.566;2022-08-21T22:02:11;8.20;;;2.78;;
71162;SDS011;58858;50.948;6.566;2022-08-21T22:12:35;6.93;;;2.15;;
71162;SDS011;58858;50.948;6.566;2022-08-21T22:22:41;4.33;;;2.40;;
71162;SDS011;58858;50.948;6.566;2022-08-21T22:32:45;6.50;;;2.10;;
71162;SDS011;58858;50.948;6.566;2022-08-21T22:53:05;6.10;;;2.30;;
71162;SDS011;58858;50.948;6.566;2022-08-21T23:03:12;10.05;;;2.95;;
71162;SDS011;58858;50.948;6.566;2022-08-21T23:13:21;6.10;;;2.60;;
71162;SDS011;58858;50.948;6.566;2022-08-21T23:23:23;6.75;;;2.67;;
71162;SDS011;58858;50.948;6.566;2022-08-21T23:44:05;12.77;;;2.67;;
71162;SDS011;58858;50.948;6.566;2022-08-21T23:54:33;11.48;;;2.88;;
